Terminal Aerodrome Forecast
Issued by NWS

Home | Current Version | Previous Version | Graphics & Text | Print | Product List | Glossary On
Versions: 1 2 3 4 5 6 7 8 9 10 11 12 13 14 15 16 17 18
000
FTUS43 KBIS 251100
TAFDIK
TAF
KDIK 251132Z 2512/2612 29018G25KT P6SM OVC010
     FM251600 30015KT P6SM BKN020
     FM252100 31012KT P6SM SCT020 BKN035
     FM260000 29006KT P6SM SCT040
     FM260400 19005KT P6SM SCT040 SCT100=

USA.gov is the U.S. government's official web portal to all federal, state and local government web resources and services.